sensor_id;sensor_type;location;lat;lon;timestamp;temperature;humidity
69418;DHT22;56610;48.872;2.400;2023-03-11T00:02:44;11.60;99.90
69418;DHT22;56610;48.872;2.400;2023-03-11T00:05:16;11.70;99.90
69418;DHT22;56610;48.872;2.400;2023-03-11T00:07:41;11.80;99.90
69418;DHT22;56610;48.872;2.400;2023-03-11T00:10:09;11.70;99.90
69418;DHT22;56610;48.872;2.400;2023-03-11T00:12:37;11.60;99.90
69418;DHT22;56610;48.872;2.400;2023-03-11T00:15:03;11.60;99.90
69418;DHT22;56610;48.872;2.400;2023-03-11T00:17:29;11.50;99.90
69418;DHT22;56610;48.872;2.400;2023-03-11T00:19:54;11.60;99.90
69418;DHT22;56610;48.872;2.400;2023-03-11T00:22:20;11.50;99.90
69418;DHT22;56610;48.872;2.400;2023-03-11T00:24:45;11.40;99.90
69418;DHT22;56610;48.872;2.400;2023-03-11T00:27:11;11.30;99.90
69418;DHT22;56610;48.872;2.400;2023-03-11T00:29:36;11.20;99.90
69418;DHT22;56610;48.872;2.400;2023-03-11T00:32:02;11.10;99.90
69418;DHT22;56610;48.872;2.400;2023-03-11T00:34:28;10.90;99.90
69418;DHT22;56610;48.872;2.400;2023-03-11T00:36:53;11.00;99.90
69418;DHT22;56610;48.872;2.400;2023-03-11T00:39:19;11.00;99.90
69418;DHT22;56610;48.872;2.400;2023-03-11T00:41:44;11.00;99.90
69418;DHT22;56610;48.872;2.400;2023-03-11T00:44:10;11.20;99.90
69418;DHT22;56610;48.872;2.400;2023-03-11T00:46:36;11.10;99.90
69418;DHT22;56610;48.872;2.400;2023-03-11T00:49:02;11.20;99.90
69418;DHT22;56610;48.872;2.400;2023-03-11T00:51:28;11.50;99.90
69418;DHT22;56610;48.872;2.400;2023-03-11T00:53:53;11.50;99.90
69418;DHT22;56610;48.872;2.400;2023-03-11T00:56:19;11.50;99.90
69418;DHT22;56610;48.872;2.400;2023-03-11T00:58:45;11.50;99.90
69418;DHT22;56610;48.872;2.400;2023-03-11T01:01:14;11.70;99.90
69418;DHT22;56610;48.872;2.400;2023-03-11T01:03:41;11.60;99.90
69418;DHT22;56610;48.872;2.400;2023-03-11T01:06:07;11.20;99.90
69418;DHT22;56610;48.872;2.400;2023-03-11T01:08:33;11.00;99.90
69418;DHT22;56610;48.872;2.400;2023-03-11T01:10:59;10.80;99.90
69418;DHT22;56610;48.872;2.400;2023-03-11T01:13:27;10.50;99.90
69418;DHT22;56610;48.872;2.400;2023-03-11T01:15:53;10.60;99.90
69418;DHT22;56610;48.872;2.400;2023-03-11T01:18:19;10.60;99.90
69418;DHT22;56610;48.872;2.400;2023-03-11T01:20:45;10.60;99.90
69418;DHT22;56610;48.872;2.400;2023-03-11T01:23:12;10.40;99.90
69418;DHT22;56610;48.872;2.400;2023-03-11T01:25:38;10.40;99.90
69418;DHT22;56610;48.872;2.400;2023-03-11T01:28:05;10.40;99.90
69418;DHT22;56610;48.872;2.400;2023-03-11T01:30:32;10.40;99.90
69418;DHT22;56610;48.872;2.400;2023-03-11T01:32:59;10.30;99.90
69418;DHT22;56610;48.872;2.400;2023-03-11T01:35:26;10.50;99.90
69418;DHT22;56610;48.872;2.400;2023-03-11T01:37:53;10.50;99.90
69418;DHT22;56610;48.872;2.400;2023-03-11T01:40:26;10.60;99.90
69418;DHT22;56610;48.872;2.400;2023-03-11T01:42:52;10.80;99.90
69418;DHT22;56610;48.872;2.400;2023-03-11T01:48:12;10.80;99.90
69418;DHT22;56610;48.872;2.400;2023-03-11T01:50:44;10.80;99.90
69418;DHT22;56610;48.872;2.400;2023-03-11T01:53:12;10.80;99.90
69418;DHT22;56610;48.872;2.400;2023-03-11T01:55:39;10.80;99.90
69418;DHT22;56610;48.872;2.400;2023-03-11T01:58:09;10.90;99.90
69418;DHT22;56610;48.872;2.400;2023-03-11T02:00:36;10.80;99.90
69418;DHT22;56610;48.872;2.400;2023-03-11T02:03:10;10.80;99.90
69418;DHT22;56610;48.872;2.400;2023-03-11T02:05:39;10.80;99.90
69418;DHT22;56610;48.872;2.400;2023-03-11T02:08:05;10.70;99.90
69418;DHT22;56610;48.872;2.400;2023-03-11T02:10:31;10.70;99.90
69418;DHT22;56610;48.872;2.400;2023-03-11T02:12:57;10.90;99.90
69418;DHT22;56610;48.872;2.400;2023-03-11T02:15:23;10.90;99.90
69418;DHT22;56610;48.872;2.400;2023-03-11T02:17:49;10.90;99.90
69418;DHT22;56610;48.872;2.400;2023-03-11T02:23:13;11.00;99.90
69418;DHT22;56610;48.872;2.400;2023-03-11T02:25:52;11.00;99.90
69418;DHT22;56610;48.872;2.400;2023-03-11T02:28:21;10.90;99.90
69418;DHT22;56610;48.872;2.400;2023-03-11T02:30:47;10.90;99.90
69418;DHT22;56610;48.872;2.400;2023-03-11T02:33:14;11.10;99.90
69418;DHT22;56610;48.872;2.400;2023-03-11T02:35:41;11.00;99.90
69418;DHT22;56610;48.872;2.400;2023-03-11T02:38:06;11.00;99.90
69418;DHT22;56610;48.872;2.400;2023-03-11T02:41:01;11.10;99.90
69418;DHT22;56610;48.872;2.400;2023-03-11T02:43:32;11.40;99.90
69418;DHT22;56610;48.872;2.400;2023-03-11T02:45:59;11.60;99.90
69418;DHT22;56610;48.872;2.400;2023-03-11T02:48:26;11.70;99.90
69418;DHT22;56610;48.872;2.400;2023-03-11T02:50:53;11.80;99.90
69418;DHT22;56610;48.872;2.400;2023-03-11T02:53:19;11.90;99.90
69418;DHT22;56610;48.872;2.400;2023-03-11T02:55:44;11.80;99.90
69418;DHT22;56610;48.872;2.400;2023-03-11T02:58:10;11.90;99.90
69418;DHT22;56610;48.872;2.400;2023-03-11T03:00:35;11.90;99.90
69418;DHT22;56610;48.872;2.400;2023-03-11T03:03:01;12.00;99.90
69418;DHT22;56610;48.872;2.400;2023-03-11T03:05:27;11.90;99.90
69418;DHT22;56610;48.872;2.400;2023-03-11T03:07:53;11.80;99.90
69418;DHT22;56610;48.872;2.400;2023-03-11T03:10:20;11.60;99.90
69418;DHT22;56610;48.872;2.400;2023-03-11T03:12:45;11.60;99.90
69418;DHT22;56610;48.872;2.400;2023-03-11T03:15:11;11.60;99.90
69418;DHT22;56610;48.872;2.400;2023-03-11T03:17:37;11.60;99.90
69418;DHT22;56610;48.872;2.400;2023-03-11T03:20:03;11.50;99.90
69418;DHT22;56610;48.872;2.400;2023-03-11T03:22:32;11.50;99.90
69418;DHT22;56610;48.872;2.400;2023-03-11T03:24:57;11.40;99.90
69418;DHT22;56610;48.872;2.400;2023-03-11T03:27:23;11.20;99.90
69418;DHT22;56610;48.872;2.400;2023-03-11T03:29:48;11.20;99.90
69418;DHT22;56610;48.872;2.400;2023-03-11T03:32:14;11.00;99.90
69418;DHT22;56610;48.872;2.400;2023-03-11T03:34:39;10.90;99.90
69418;DHT22;56610;48.872;2.400;2023-03-11T03:37:05;10.90;99.90
69418;DHT22;56610;48.872;2.400;2023-03-11T03:39:31;11.00;99.90
69418;DHT22;56610;48.872;2.400;2023-03-11T03:41:57;10.90;99.90
69418;DHT22;56610;48.872;2.400;2023-03-11T03:44:23;10.90;99.90
69418;DHT22;56610;48.872;2.400;2023-03-11T03:46:48;11.00;99.90
69418;DHT22;56610;48.872;2.400;2023-03-11T03:49:14;11.20;99.90
69418;DHT22;56610;48.872;2.400;2023-03-11T03:51:39;11.30;99.90
69418;DHT22;56610;48.872;2.400;2023-03-11T03:54:05;11.50;99.90
69418;DHT22;56610;48.872;2.400;2023-03-11T03:56:30;11.50;99.90
69418;DHT22;56610;48.872;2.400;2023-03-11T03:58:56;11.50;99.90
69418;DHT22;56610;48.872;2.400;2023-03-11T04:01:22;11.50;99.90
69418;DHT22;56610;48.872;2.400;2023-03-11T04:03:47;11.60;99.90
69418;DHT22;56610;48.872;2.400;2023-03-11T04:06:22;11.70;99.90
69418;DHT22;56610;48.872;2.400;2023-03-11T04:08:50;11.50;99.90
69418;DHT22;56610;48.872;2.400;2023-03-11T04:11:16;11.40;99.90
69418;DHT22;56610;48.872;2.400;2023-03-11T04:13:42;11.40;99.90
69418;DHT22;56610;48.872;2.400;2023-03-11T04:16:11;11.40;99.90
69418;DHT22;56610;48.872;2.400;2023-03-11T04:18:38;11.30;99.90
69418;DHT22;56610;48.872;2.400;2023-03-11T04:21:05;11.10;99.90
69418;DHT22;56610;48.872;2.400;2023-03-11T04:23:31;11.00;99.90
69418;DHT22;56610;48.872;2.400;2023-03-11T04:25:57;10.90;99.90
69418;DHT22;56610;48.872;2.400;2023-03-11T04:28:22;10.80;99.90
69418;DHT22;56610;48.872;2.400;2023-03-11T04:30:48;10.80;99.90
69418;DHT22;56610;48.872;2.400;2023-03-11T04:33:13;10.80;99.90
69418;DHT22;56610;48.872;2.400;2023-03-11T04:35:39;10.70;99.90
69418;DHT22;56610;48.872;2.400;2023-03-11T04:38:05;10.70;99.90
69418;DHT22;56610;48.872;2.400;2023-03-11T04:40:30;10.80;99.90
69418;DHT22;56610;48.872;2.400;2023-03-11T04:42:56;10.80;99.90
69418;DHT22;56610;48.872;2.400;2023-03-11T04:45:22;10.90;99.90
69418;DHT22;56610;48.872;2.400;2023-03-11T04:47:49;11.00;99.90
69418;DHT22;56610;48.872;2.400;2023-03-11T04:50:15;11.00;99.90
69418;DHT22;56610;48.872;2.400;2023-03-11T04:52:41;11.10;99.90
69418;DHT22;56610;48.872;2.400;2023-03-11T04:55:07;11.00;99.90
69418;DHT22;56610;48.872;2.400;2023-03-11T04:57:33;11.10;99.90
69418;DHT22;56610;48.872;2.400;2023-03-11T04:59:58;11.00;99.90
69418;DHT22;56610;48.872;2.400;2023-03-11T05:02:24;11.10;99.90
69418;DHT22;56610;48.872;2.400;2023-03-11T05:04:49;11.10;99.90
69418;DHT22;56610;48.872;2.400;2023-03-11T05:07:15;11.10;99.90
69418;DHT22;56610;48.872;2.400;2023-03-11T05:09:41;10.90;99.90
69418;DHT22;56610;48.872;2.400;2023-03-11T05:12:08;10.90;99.90
69418;DHT22;56610;48.872;2.400;2023-03-11T05:14:35;11.00;99.90
69418;DHT22;56610;48.872;2.400;2023-03-11T05:17:00;11.00;99.90
69418;DHT22;56610;48.872;2.400;2023-03-11T05:19:26;11.00;99.90
69418;DHT22;56610;48.872;2.400;2023-03-11T05:22:02;11.20;99.90
69418;DHT22;56610;48.872;2.400;2023-03-11T05:24:28;11.50;99.90
69418;DHT22;56610;48.872;2.400;2023-03-11T05:26:54;11.60;99.90
69418;DHT22;56610;48.872;2.400;2023-03-11T05:29:20;11.60;99.90
69418;DHT22;56610;48.872;2.400;2023-03-11T05:31:46;11.60;99.90
69418;DHT22;56610;48.872;2.400;2023-03-11T05:34:13;11.60;99.90
69418;DHT22;56610;48.872;2.400;2023-03-11T05:36:38;11.60;99.90
69418;DHT22;56610;48.872;2.400;2023-03-11T05:39:04;11.60;99.90
69418;DHT22;56610;48.872;2.400;2023-03-11T05:41:30;11.60;99.90
69418;DHT22;56610;48.872;2.400;2023-03-11T05:43:55;11.50;99.90
69418;DHT22;56610;48.872;2.400;2023-03-11T05:46:21;11.40;99.90
69418;DHT22;56610;48.872;2.400;2023-03-11T05:48:46;11.50;99.90
69418;DHT22;56610;48.872;2.400;2023-03-11T05:51:12;11.40;99.90
69418;DHT22;56610;48.872;2.400;2023-03-11T05:53:41;11.20;99.90
69418;DHT22;56610;48.872;2.400;2023-03-11T05:56:13;11.20;99.90
69418;DHT22;56610;48.872;2.400;2023-03-11T05:58:38;11.20;99.90
69418;DHT22;56610;48.872;2.400;2023-03-11T06:01:12;10.90;99.90
69418;DHT22;56610;48.872;2.400;2023-03-11T06:03:39;11.00;99.90
69418;DHT22;56610;48.872;2.400;2023-03-11T06:06:06;11.20;99.90
69418;DHT22;56610;48.872;2.400;2023-03-11T06:08:33;11.20;99.90
69418;DHT22;56610;48.872;2.400;2023-03-11T06:11:02;11.10;99.90
69418;DHT22;56610;48.872;2.400;2023-03-11T06:13:28;10.90;99.90
69418;DHT22;56610;48.872;2.400;2023-03-11T06:15:54;10.90;99.90
69418;DHT22;56610;48.872;2.400;2023-03-11T06:18:19;10.80;99.90
69418;DHT22;56610;48.872;2.400;2023-03-11T06:20:45;10.80;99.90
69418;DHT22;56610;48.872;2.400;2023-03-11T06:23:10;10.70;99.90
69418;DHT22;56610;48.872;2.400;2023-03-11T06:25:36;10.80;99.90
69418;DHT22;56610;48.872;2.400;2023-03-11T06:28:02;10.60;99.90
69418;DHT22;56610;48.872;2.400;2023-03-11T06:30:27;10.30;99.90
69418;DHT22;56610;48.872;2.400;2023-03-11T06:32:53;10.20;99.90
69418;DHT22;56610;48.872;2.400;2023-03-11T06:35:19;10.20;99.90
69418;DHT22;56610;48.872;2.400;2023-03-11T06:37:45;10.20;99.90
69418;DHT22;56610;48.872;2.400;2023-03-11T06:40:11;10.30;99.90
69418;DHT22;56610;48.872;2.400;2023-03-11T06:42:37;10.40;99.90
69418;DHT22;56610;48.872;2.400;2023-03-11T06:45:02;10.50;99.90
69418;DHT22;56610;48.872;2.400;2023-03-11T06:47:28;11.00;99.90
69418;DHT22;56610;48.872;2.400;2023-03-11T06:49:54;11.50;99.90
69418;DHT22;56610;48.872;2.400;2023-03-11T06:52:19;11.90;99.90
69418;DHT22;56610;48.872;2.400;2023-03-11T06:54:45;11.90;99.90
69418;DHT22;56610;48.872;2.400;2023-03-11T06:57:11;12.10;99.90
69418;DHT22;56610;48.872;2.400;2023-03-11T06:59:37;12.20;99.90
69418;DHT22;56610;48.872;2.400;2023-03-11T07:02:04;12.20;99.90
69418;DHT22;56610;48.872;2.400;2023-03-11T07:04:31;12.10;99.90
69418;DHT22;56610;48.872;2.400;2023-03-11T07:06:57;12.00;99.90
69418;DHT22;56610;48.872;2.400;2023-03-11T07:09:23;11.80;99.90
69418;DHT22;56610;48.872;2.400;2023-03-11T07:11:50;11.80;99.90
69418;DHT22;56610;48.872;2.400;2023-03-11T07:14:16;11.60;99.90
69418;DHT22;56610;48.872;2.400;2023-03-11T07:16:42;11.50;99.90
69418;DHT22;56610;48.872;2.400;2023-03-11T07:19:10;11.30;99.90
69418;DHT22;56610;48.872;2.400;2023-03-11T07:21:35;11.50;99.90
69418;DHT22;56610;48.872;2.400;2023-03-11T07:24:01;11.60;99.90
69418;DHT22;56610;48.872;2.400;2023-03-11T07:26:28;11.60;99.90
69418;DHT22;56610;48.872;2.400;2023-03-11T07:28:55;11.80;99.90
69418;DHT22;56610;48.872;2.400;2023-03-11T07:31:24;11.90;99.90
69418;DHT22;56610;48.872;2.400;2023-03-11T07:33:50;11.90;99.90
69418;DHT22;56610;48.872;2.400;2023-03-11T07:36:18;11.80;99.90
69418;DHT22;56610;48.872;2.400;2023-03-11T07:38:44;11.80;99.90
69418;DHT22;56610;48.872;2.400;2023-03-11T07:41:11;11.70;99.90
69418;DHT22;56610;48.872;2.400;2023-03-11T07:43:37;11.70;99.90
69418;DHT22;56610;48.872;2.400;2023-03-11T07:46:06;11.80;99.90
69418;DHT22;56610;48.872;2.400;2023-03-11T07:51:21;12.20;99.90
69418;DHT22;56610;48.872;2.400;2023-03-11T07:53:48;12.30;99.90
69418;DHT22;56610;48.872;2.400;2023-03-11T07:56:15;12.40;99.90
69418;DHT22;56610;48.872;2.400;2023-03-11T07:58:41;12.60;99.90
69418;DHT22;56610;48.872;2.400;2023-03-11T08:01:10;12.30;99.90
69418;DHT22;56610;48.872;2.400;2023-03-11T08:03:37;12.30;99.90
69418;DHT22;56610;48.872;2.400;2023-03-11T08:06:10;12.40;99.90
69418;DHT22;56610;48.872;2.400;2023-03-11T08:08:36;12.50;99.90
69418;DHT22;56610;48.872;2.400;2023-03-11T08:11:02;12.70;99.90
69418;DHT22;56610;48.872;2.400;2023-03-11T08:13:28;12.90;99.90
69418;DHT22;56610;48.872;2.400;2023-03-11T08:15:54;13.00;99.90
69418;DHT22;56610;48.872;2.400;2023-03-11T08:18:19;13.00;99.90
69418;DHT22;56610;48.872;2.400;2023-03-11T08:20:45;12.80;99.90
69418;DHT22;56610;48.872;2.400;2023-03-11T08:23:10;12.80;99.90
69418;DHT22;56610;48.872;2.400;2023-03-11T08:25:39;12.70;99.90
69418;DHT22;56610;48.872;2.400;2023-03-11T08:28:05;12.60;99.90
69418;DHT22;56610;48.872;2.400;2023-03-11T08:30:32;12.70;99.90
69418;DHT22;56610;48.872;2.400;2023-03-11T08:32:58;12.70;99.90
69418;DHT22;56610;48.872;2.400;2023-03-11T08:35:23;12.80;99.90
69418;DHT22;56610;48.872;2.400;2023-03-11T08:37:50;13.00;99.90
69418;DHT22;56610;48.872;2.400;2023-03-11T08:40:16;13.10;99.90
69418;DHT22;56610;48.872;2.400;2023-03-11T08:42:41;13.20;99.90
69418;DHT22;56610;48.872;2.400;2023-03-11T08:45:08;13.40;99.90
69418;DHT22;56610;48.872;2.400;2023-03-11T08:47:37;13.70;99.90
69418;DHT22;56610;48.872;2.400;2023-03-11T08:50:05;13.30;99.90
69418;DHT22;56610;48.872;2.400;2023-03-11T08:52:31;12.90;99.90
69418;DHT22;56610;48.872;2.400;2023-03-11T08:54:57;12.50;99.90
69418;DHT22;56610;48.872;2.400;2023-03-11T08:57:22;12.10;99.90
69418;DHT22;56610;48.872;2.400;2023-03-11T09:00:09;12.10;99.90
69418;DHT22;56610;48.872;2.400;2023-03-11T09:02:35;12.20;99.90
69418;DHT22;56610;48.872;2.400;2023-03-11T09:05:01;12.50;99.90
69418;DHT22;56610;48.872;2.400;2023-03-11T09:07:26;12.70;99.90
69418;DHT22;56610;48.872;2.400;2023-03-11T09:09:52;13.00;99.90
69418;DHT22;56610;48.872;2.400;2023-03-11T09:12:19;13.40;99.90
69418;DHT22;56610;48.872;2.400;2023-03-11T09:14:45;13.50;99.90
69418;DHT22;56610;48.872;2.400;2023-03-11T09:17:10;13.70;99.90
69418;DHT22;56610;48.872;2.400;2023-03-11T09:19:39;13.80;99.90
69418;DHT22;56610;48.872;2.400;2023-03-11T09:22:05;14.00;99.90
69418;DHT22;56610;48.872;2.400;2023-03-11T09:24:34;14.00;99.90
69418;DHT22;56610;48.872;2.400;2023-03-11T09:27:00;14.00;99.90
69418;DHT22;56610;48.872;2.400;2023-03-11T09:29:26;14.10;99.90
69418;DHT22;56610;48.872;2.400;2023-03-11T09:31:52;14.10;99.90
69418;DHT22;56610;48.872;2.400;2023-03-11T09:34:18;14.20;99.90
69418;DHT22;56610;48.872;2.400;2023-03-11T09:36:43;14.10;99.90
69418;DHT22;56610;48.872;2.400;2023-03-11T09:39:09;13.90;99.90
69418;DHT22;56610;48.872;2.400;2023-03-11T09:44:33;13.80;99.90
69418;DHT22;56610;48.872;2.400;2023-03-11T09:47:31;13.60;99.70
69418;DHT22;56610;48.872;2.400;2023-03-11T09:55:51;13.40;99.90
69418;DHT22;56610;48.872;2.400;2023-03-11T10:01:24;13.40;99.90
69418;DHT22;56610;48.872;2.400;2023-03-11T10:03:54;13.40;99.90
69418;DHT22;56610;48.872;2.400;2023-03-11T10:06:22;13.60;99.90
69418;DHT22;56610;48.872;2.400;2023-03-11T10:11:36;13.70;99.90
69418;DHT22;56610;48.872;2.400;2023-03-11T10:14:14;13.60;99.90
69418;DHT22;56610;48.872;2.400;2023-03-11T10:19:47;13.20;99.60
69418;DHT22;56610;48.872;2.400;2023-03-11T10:22:20;12.90;99.90
69418;DHT22;56610;48.872;2.400;2023-03-11T10:25:02;13.00;99.70
69418;DHT22;56610;48.872;2.400;2023-03-11T10:27:36;13.20;99.90
69418;DHT22;56610;48.872;2.400;2023-03-11T10:30:35;13.40;99.90
69418;DHT22;56610;48.872;2.400;2023-03-11T10:33:34;13.60;99.90
69418;DHT22;56610;48.872;2.400;2023-03-11T10:36:35;13.70;99.90
69418;DHT22;56610;48.872;2.400;2023-03-11T10:39:03;13.60;99.90
69418;DHT22;56610;48.872;2.400;2023-03-11T10:44:11;13.70;98.90
69418;DHT22;56610;48.872;2.400;2023-03-11T10:46:38;13.90;98.40
69418;DHT22;56610;48.872;2.400;2023-03-11T10:49:10;14.00;99.10
69418;DHT22;56610;48.872;2.400;2023-03-11T10:51:37;14.10;98.90
69418;DHT22;56610;48.872;2.400;2023-03-11T10:54:03;14.10;97.80
69418;DHT22;56610;48.872;2.400;2023-03-11T10:59:01;14.20;97.80
69418;DHT22;56610;48.872;2.400;2023-03-11T11:01:27;14.10;97.70
69418;DHT22;56610;48.872;2.400;2023-03-11T11:03:56;14.20;97.80
69418;DHT22;56610;48.872;2.400;2023-03-11T11:06:24;14.10;97.90
69418;DHT22;56610;48.872;2.400;2023-03-11T11:09:16;13.90;97.10
69418;DHT22;56610;48.872;2.400;2023-03-11T11:14:24;13.70;99.20
69418;DHT22;56610;48.872;2.400;2023-03-11T11:16:51;13.90;98.10
69418;DHT22;56610;48.872;2.400;2023-03-11T11:19:17;13.90;98.40
69418;DHT22;56610;48.872;2.400;2023-03-11T11:21:47;14.10;98.00
69418;DHT22;56610;48.872;2.400;2023-03-11T11:24:27;14.20;98.40
69418;DHT22;56610;48.872;2.400;2023-03-11T11:27:25;14.50;97.80
69418;DHT22;56610;48.872;2.400;2023-03-11T11:32:33;14.40;97.70
69418;DHT22;56610;48.872;2.400;2023-03-11T11:35:06;14.30;96.80
69418;DHT22;56610;48.872;2.400;2023-03-11T11:37:37;14.30;97.10
69418;DHT22;56610;48.872;2.400;2023-03-11T11:40:16;14.50;97.30
69418;DHT22;56610;48.872;2.400;2023-03-11T11:43:05;14.70;96.70
69418;DHT22;56610;48.872;2.400;2023-03-11T11:45:41;15.00;97.60
69418;DHT22;56610;48.872;2.400;2023-03-11T11:50:59;15.50;96.60
69418;DHT22;56610;48.872;2.400;2023-03-11T11:53:48;15.60;96.00
69418;DHT22;56610;48.872;2.400;2023-03-11T11:56:16;15.20;96.20
69418;DHT22;56610;48.872;2.400;2023-03-11T11:58:42;15.20;97.50
69418;DHT22;56610;48.872;2.400;2023-03-11T12:01:43;15.30;96.70
69418;DHT22;56610;48.872;2.400;2023-03-11T12:12:33;16.30;95.80
69418;DHT22;56610;48.872;2.400;2023-03-11T12:15:19;16.30;95.70
69418;DHT22;56610;48.872;2.400;2023-03-11T12:17:47;16.10;95.10
69418;DHT22;56610;48.872;2.400;2023-03-11T12:20:20;16.10;94.10
69418;DHT22;56610;48.872;2.400;2023-03-11T12:23:58;16.10;94.50
69418;DHT22;56610;48.872;2.400;2023-03-11T12:26:14;16.20;94.50
69418;DHT22;56610;48.872;2.400;2023-03-11T12:29:03;16.00;95.60
69418;DHT22;56610;48.872;2.400;2023-03-11T12:31:36;16.10;94.60
69418;DHT22;56610;48.872;2.400;2023-03-11T12:34:05;16.20;95.40
69418;DHT22;56610;48.872;2.400;2023-03-11T12:36:36;16.10;95.10
69418;DHT22;56610;48.872;2.400;2023-03-11T12:39:18;16.20;94.00
69418;DHT22;56610;48.872;2.400;2023-03-11T12:41:44;16.10;94.10
69418;DHT22;56610;48.872;2.400;2023-03-11T12:44:26;16.20;94.10
69418;DHT22;56610;48.872;2.400;2023-03-11T12:49:30;15.60;94.80
69418;DHT22;56610;48.872;2.400;2023-03-11T12:54:38;15.30;94.40
69418;DHT22;56610;48.872;2.400;2023-03-11T12:57:30;15.30;94.30
69418;DHT22;56610;48.872;2.400;2023-03-11T13:06:20;15.10;94.30
69418;DHT22;56610;48.872;2.400;2023-03-11T13:08:53;15.20;94.30
69418;DHT22;56610;48.872;2.400;2023-03-11T13:13:50;15.30;94.00
69418;DHT22;56610;48.872;2.400;2023-03-11T13:18:47;15.20;93.50
69418;DHT22;56610;48.872;2.400;2023-03-11T13:23:51;15.10;93.80
69418;DHT22;56610;48.872;2.400;2023-03-11T13:28:50;15.00;94.00
69418;DHT22;56610;48.872;2.400;2023-03-11T13:32:00;14.80;93.80
69418;DHT22;56610;48.872;2.400;2023-03-11T13:37:25;15.10;94.40
69418;DHT22;56610;48.872;2.400;2023-03-11T13:43:00;15.00;93.50
69418;DHT22;56610;48.872;2.400;2023-03-11T13:45:30;14.80;94.10
69418;DHT22;56610;48.872;2.400;2023-03-11T13:47:59;14.70;94.20
69418;DHT22;56610;48.872;2.400;2023-03-11T13:50:30;14.70;94.50
69418;DHT22;56610;48.872;2.400;2023-03-11T13:52:57;15.00;93.90
69418;DHT22;56610;48.872;2.400;2023-03-11T13:55:33;15.10;94.10
69418;DHT22;56610;48.872;2.400;2023-03-11T13:58:00;15.20;94.60
69418;DHT22;56610;48.872;2.400;2023-03-11T14:00:47;15.20;94.20
69418;DHT22;56610;48.872;2.400;2023-03-11T14:03:13;15.20;94.20
69418;DHT22;56610;48.872;2.400;2023-03-11T14:05:45;15.00;93.90
69418;DHT22;56610;48.872;2.400;2023-03-11T14:08:21;15.00;94.20
69418;DHT22;56610;48.872;2.400;2023-03-11T14:10:56;14.70;94.80
69418;DHT22;56610;48.872;2.400;2023-03-11T14:13:23;14.70;94.50
69418;DHT22;56610;48.872;2.400;2023-03-11T14:15:59;14.80;95.60
69418;DHT22;56610;48.872;2.400;2023-03-11T14:18:28;14.90;95.50
69418;DHT22;56610;48.872;2.400;2023-03-11T14:20:55;15.10;94.60
69418;DHT22;56610;48.872;2.400;2023-03-11T14:23:28;15.20;95.20
69418;DHT22;56610;48.872;2.400;2023-03-11T14:26:00;15.40;94.80
69418;DHT22;56610;48.872;2.400;2023-03-11T14:28:28;15.50;94.80
69418;DHT22;56610;48.872;2.400;2023-03-11T14:30:59;15.40;94.30
69418;DHT22;56610;48.872;2.400;2023-03-11T14:33:26;15.70;94.00
69418;DHT22;56610;48.872;2.400;2023-03-11T14:35:57;15.80;93.80
69418;DHT22;56610;48.872;2.400;2023-03-11T14:38:26;15.50;93.60
69418;DHT22;56610;48.872;2.400;2023-03-11T14:41:01;15.10;94.80
69418;DHT22;56610;48.872;2.400;2023-03-11T14:43:32;15.00;94.80
69418;DHT22;56610;48.872;2.400;2023-03-11T14:45:59;15.20;94.50
69418;DHT22;56610;48.872;2.400;2023-03-11T14:50:52;15.10;94.50
69418;DHT22;56610;48.872;2.400;2023-03-11T14:53:41;15.40;94.50
69418;DHT22;56610;48.872;2.400;2023-03-11T14:56:16;15.40;94.30
69418;DHT22;56610;48.872;2.400;2023-03-11T14:59:09;14.80;94.50
69418;DHT22;56610;48.872;2.400;2023-03-11T15:01:42;14.40;95.00
69418;DHT22;56610;48.872;2.400;2023-03-11T15:04:12;14.50;95.10
69418;DHT22;56610;48.872;2.400;2023-03-11T15:06:42;14.20;95.30
69418;DHT22;56610;48.872;2.400;2023-03-11T15:09:17;13.80;96.10
69418;DHT22;56610;48.872;2.400;2023-03-11T15:11:59;13.80;96.60
69418;DHT22;56610;48.872;2.400;2023-03-11T15:14:33;14.00;96.50
69418;DHT22;56610;48.872;2.400;2023-03-11T15:17:22;14.40;96.40
69418;DHT22;56610;48.872;2.400;2023-03-11T15:19:56;14.60;96.30
69418;DHT22;56610;48.872;2.400;2023-03-11T15:22:30;14.60;95.80
69418;DHT22;56610;48.872;2.400;2023-03-11T15:25:00;14.40;97.20
69418;DHT22;56610;48.872;2.400;2023-03-11T15:27:35;14.30;96.30
69418;DHT22;56610;48.872;2.400;2023-03-11T15:30:23;14.40;96.10
69418;DHT22;56610;48.872;2.400;2023-03-11T15:32:49;14.30;96.10
69418;DHT22;56610;48.872;2.400;2023-03-11T15:35:18;13.70;96.70
69418;DHT22;56610;48.872;2.400;2023-03-11T15:37:45;13.30;97.10
69418;DHT22;56610;48.872;2.400;2023-03-11T15:40:19;13.10;97.60
69418;DHT22;56610;48.872;2.400;2023-03-11T15:42:46;13.50;97.50
69418;DHT22;56610;48.872;2.400;2023-03-11T15:47:39;14.30;97.10
69418;DHT22;56610;48.872;2.400;2023-03-11T15:50:15;14.30;96.70
69418;DHT22;56610;48.872;2.400;2023-03-11T15:52:41;14.30;96.60
69418;DHT22;56610;48.872;2.400;2023-03-11T15:55:08;14.30;96.60
69418;DHT22;56610;48.872;2.400;2023-03-11T15:57:35;14.30;96.60
69418;DHT22;56610;48.872;2.400;2023-03-11T16:00:01;14.50;96.60
69418;DHT22;56610;48.872;2.400;2023-03-11T16:02:29;14.50;96.70
69418;DHT22;56610;48.872;2.400;2023-03-11T16:04:56;14.70;97.10
69418;DHT22;56610;48.872;2.400;2023-03-11T16:07:22;14.80;96.50
69418;DHT22;56610;48.872;2.400;2023-03-11T16:09:47;14.80;95.80
69418;DHT22;56610;48.872;2.400;2023-03-11T16:12:18;14.60;96.30
69418;DHT22;56610;48.872;2.400;2023-03-11T16:14:44;14.50;96.40
69418;DHT22;56610;48.872;2.400;2023-03-11T16:17:10;14.60;96.50
69418;DHT22;56610;48.872;2.400;2023-03-11T16:19:40;14.90;96.30
69418;DHT22;56610;48.872;2.400;2023-03-11T16:22:30;14.90;95.90
69418;DHT22;56610;48.872;2.400;2023-03-11T16:24:58;15.10;96.10
69418;DHT22;56610;48.872;2.400;2023-03-11T16:27:24;15.20;95.80
69418;DHT22;56610;48.872;2.400;2023-03-11T16:29:50;15.00;96.20
69418;DHT22;56610;48.872;2.400;2023-03-11T16:32:15;14.80;95.70
69418;DHT22;56610;48.872;2.400;2023-03-11T16:34:41;14.60;96.70
69418;DHT22;56610;48.872;2.400;2023-03-11T16:37:07;14.60;96.40
69418;DHT22;56610;48.872;2.400;2023-03-11T16:39:33;14.50;96.40
69418;DHT22;56610;48.872;2.400;2023-03-11T16:41:59;14.40;96.50
69418;DHT22;56610;48.872;2.400;2023-03-11T16:44:25;14.40;96.80
69418;DHT22;56610;48.872;2.400;2023-03-11T16:46:52;14.40;96.60
69418;DHT22;56610;48.872;2.400;2023-03-11T16:49:17;14.20;97.10
69418;DHT22;56610;48.872;2.400;2023-03-11T16:51:43;14.40;96.80
69418;DHT22;56610;48.872;2.400;2023-03-11T16:54:09;14.50;96.80
69418;DHT22;56610;48.872;2.400;2023-03-11T16:56:35;14.50;96.60
69418;DHT22;56610;48.872;2.400;2023-03-11T16:59:01;14.30;97.00
69418;DHT22;56610;48.872;2.400;2023-03-11T17:01:27;14.10;96.80
69418;DHT22;56610;48.872;2.400;2023-03-11T17:03:52;13.70;97.40